sensor_id;sensor_type;location;lat;lon;timestamp;P1;durP1;ratioP1;P2;durP2;ratioP2
19727;SDS011;10015;52.530;13.390;2022-08-19T00:18:57;10.60;;;7.97;;
19727;SDS011;10015;52.530;13.390;2022-08-19T00:21:23;11.23;;;8.63;;
19727;SDS011;10015;52.530;13.390;2022-08-19T00:23:52;11.93;;;9.15;;
19727;SDS011;10015;52.530;13.390;2022-08-19T00:26:19;9.88;;;8.77;;
19727;SDS011;10015;52.530;13.390;2022-08-19T00:28:46;12.20;;;9.25;;
19727;SDS011;10015;52.530;13.390;2022-08-19T00:31:13;10.80;;;8.98;;
19727;SDS011;10015;52.530;13.390;2022-08-19T00:33:39;14.25;;;8.90;;
19727;SDS011;10015;52.530;13.390;2022-08-19T00:36:06;10.90;;;8.90;;
19727;SDS011;10015;52.530;13.390;2022-08-19T00:38:33;10.52;;;8.63;;
19727;SDS011;10015;52.530;13.390;2022-08-19T00:41:00;10.93;;;8.95;;
19727;SDS011;10015;52.530;13.390;2022-08-19T00:43:26;10.98;;;8.82;;
19727;SDS011;10015;52.530;13.390;2022-08-19T00:45:53;13.65;;;9.25;;
19727;SDS011;10015;52.530;13.390;2022-08-19T00:48:19;12.98;;;9.05;;
19727;SDS011;10015;52.530;13.390;2022-08-19T00:50:47;11.90;;;8.63;;
19727;SDS011;10015;52.530;13.390;2022-08-19T00:53:16;11.88;;;8.80;;
19727;SDS011;10015;52.530;13.390;2022-08-19T00:55:47;11.60;;;9.25;;
19727;SDS011;10015;52.530;13.390;2022-08-19T00:58:17;16.25;;;9.57;;
19727;SDS011;10015;52.530;13.390;2022-08-19T01:00:46;11.68;;;9.35;;
19727;SDS011;10015;52.530;13.390;2022-08-19T01:03:14;13.65;;;9.32;;
19727;SDS011;10015;52.530;13.390;2022-08-19T01:05:43;12.30;;;9.75;;
19727;SDS011;10015;52.530;13.390;2022-08-19T01:08:10;14.18;;;10.80;;
19727;SDS011;10015;52.530;13.390;2022-08-19T01:10:41;13.32;;;9.73;;
19727;SDS011;10015;52.530;13.390;2022-08-19T01:13:14;15.88;;;10.82;;
19727;SDS011;10015;52.530;13.390;2022-08-19T01:15:48;14.70;;;10.75;;
19727;SDS011;10015;52.530;13.390;2022-08-19T01:18:19;13.70;;;10.60;;
19727;SDS011;10015;52.530;13.390;2022-08-19T01:20:46;12.65;;;10.25;;
19727;SDS011;10015;52.530;13.390;2022-08-19T01:23:13;12.52;;;9.77;;
19727;SDS011;10015;52.530;13.390;2022-08-19T01:28:06;12.85;;;9.70;;
19727;SDS011;10015;52.530;13.390;2022-08-19T01:30:34;11.75;;;8.82;;
19727;SDS011;10015;52.530;13.390;2022-08-19T01:33:00;13.15;;;10.40;;
19727;SDS011;10015;52.530;13.390;2022-08-19T01:35:28;11.32;;;9.35;;
19727;SDS011;10015;52.530;13.390;2022-08-19T01:37:59;11.50;;;9.35;;
19727;SDS011;10015;52.530;13.390;2022-08-19T01:40:31;12.65;;;8.95;;
19727;SDS011;10015;52.530;13.390;2022-08-19T01:42:59;10.15;;;8.40;;
19727;SDS011;10015;52.530;13.390;2022-08-19T01:45:26;10.55;;;8.52;;
19727;SDS011;10015;52.530;13.390;2022-08-19T01:47:54;13.85;;;9.23;;
19727;SDS011;10015;52.530;13.390;2022-08-19T01:50:20;11.07;;;8.80;;
19727;SDS011;10015;52.530;13.390;2022-08-19T01:52:46;10.43;;;8.88;;
19727;SDS011;10015;52.530;13.390;2022-08-19T01:55:14;14.52;;;9.05;;
19727;SDS011;10015;52.530;13.390;2022-08-19T01:57:44;11.98;;;9.38;;
19727;SDS011;10015;52.530;13.390;2022-08-19T02:00:16;13.80;;;9.15;;
19727;SDS011;10015;52.530;13.390;2022-08-19T02:02:44;13.20;;;8.88;;
19727;SDS011;10015;52.530;13.390;2022-08-19T02:05:10;13.02;;;9.45;;
19727;SDS011;10015;52.530;13.390;2022-08-19T02:07:37;12.68;;;9.32;;
19727;SDS011;10015;52.530;13.390;2022-08-19T02:10:05;12.48;;;9.07;;
19727;SDS011;10015;52.530;13.390;2022-08-19T02:12:33;12.45;;;9.23;;
19727;SDS011;10015;52.530;13.390;2022-08-19T02:14:59;14.43;;;9.93;;
19727;SDS011;10015;52.530;13.390;2022-08-19T02:17:27;13.70;;;10.13;;
19727;SDS011;10015;52.530;13.390;2022-08-19T02:19:54;14.77;;;9.75;;
19727;SDS011;10015;52.530;13.390;2022-08-19T02:22:20;12.95;;;9.63;;
19727;SDS011;10015;52.530;13.390;2022-08-19T02:24:46;13.55;;;10.30;;
19727;SDS011;10015;52.530;13.390;2022-08-19T02:27:13;14.75;;;9.35;;
19727;SDS011;10015;52.530;13.390;2022-08-19T02:29:39;12.23;;;9.43;;
19727;SDS011;10015;52.530;13.390;2022-08-19T02:32:06;11.73;;;9.25;;
19727;SDS011;10015;52.530;13.390;2022-08-19T02:34:32;10.40;;;8.75;;
19727;SDS011;10015;52.530;13.390;2022-08-19T02:36:59;12.73;;;9.30;;
19727;SDS011;10015;52.530;13.390;2022-08-19T02:39:26;12.40;;;9.48;;
19727;SDS011;10015;52.530;13.390;2022-08-19T02:41:53;11.80;;;9.05;;
19727;SDS011;10015;52.530;13.390;2022-08-19T02:44:19;11.18;;;8.52;;
19727;SDS011;10015;52.530;13.390;2022-08-19T02:46:46;9.60;;;8.57;;
19727;SDS011;10015;52.530;13.390;2022-08-19T02:49:12;10.48;;;8.60;;
19727;SDS011;10015;52.530;13.390;2022-08-19T02:51:44;11.35;;;7.97;;
19727;SDS011;10015;52.530;13.390;2022-08-19T02:54:12;12.05;;;8.43;;
19727;SDS011;10015;52.530;13.390;2022-08-19T02:56:40;11.38;;;9.27;;
19727;SDS011;10015;52.530;13.390;2022-08-19T02:59:07;10.75;;;8.95;;
19727;SDS011;10015;52.530;13.390;2022-08-19T03:01:35;11.27;;;8.38;;
19727;SDS011;10015;52.530;13.390;2022-08-19T03:04:04;12.02;;;8.65;;
19727;SDS011;10015;52.530;13.390;2022-08-19T03:06:31;12.00;;;8.95;;
19727;SDS011;10015;52.530;13.390;2022-08-19T03:08:57;11.68;;;9.45;;
19727;SDS011;10015;52.530;13.390;2022-08-19T03:11:25;12.93;;;8.63;;
19727;SDS011;10015;52.530;13.390;2022-08-19T03:14:05;13.18;;;9.38;;
19727;SDS011;10015;52.530;13.390;2022-08-19T03:16:33;13.07;;;9.18;;
19727;SDS011;10015;52.530;13.390;2022-08-19T03:19:01;12.63;;;8.85;;
19727;SDS011;10015;52.530;13.390;2022-08-19T03:21:28;12.20;;;9.45;;
19727;SDS011;10015;52.530;13.390;2022-08-19T03:23:57;15.25;;;10.00;;
19727;SDS011;10015;52.530;13.390;2022-08-19T03:26:24;12.45;;;9.82;;
19727;SDS011;10015;52.530;13.390;2022-08-19T03:28:50;13.48;;;10.25;;
19727;SDS011;10015;52.530;13.390;2022-08-19T03:31:19;13.07;;;9.48;;
19727;SDS011;10015;52.530;13.390;2022-08-19T03:33:49;12.02;;;9.50;;
19727;SDS011;10015;52.530;13.390;2022-08-19T03:36:18;12.32;;;9.45;;
19727;SDS011;10015;52.530;13.390;2022-08-19T03:38:52;12.20;;;9.77;;
19727;SDS011;10015;52.530;13.390;2022-08-19T03:41:21;12.02;;;9.13;;
19727;SDS011;10015;52.530;13.390;2022-08-19T03:43:49;12.05;;;9.23;;
19727;SDS011;10015;52.530;13.390;2022-08-19T03:46:16;10.77;;;9.05;;
19727;SDS011;10015;52.530;13.390;2022-08-19T03:48:46;11.15;;;9.88;;
19727;SDS011;10015;52.530;13.390;2022-08-19T03:51:23;13.80;;;9.50;;
19727;SDS011;10015;52.530;13.390;2022-08-19T03:53:52;11.98;;;9.02;;
19727;SDS011;10015;52.530;13.390;2022-08-19T03:56:19;13.43;;;9.93;;
19727;SDS011;10015;52.530;13.390;2022-08-19T03:58:46;11.38;;;9.25;;
19727;SDS011;10015;52.530;13.390;2022-08-19T04:01:13;12.07;;;8.85;;
19727;SDS011;10015;52.530;13.390;2022-08-19T04:03:42;13.25;;;9.95;;
19727;SDS011;10015;52.530;13.390;2022-08-19T04:06:28;11.82;;;9.43;;
19727;SDS011;10015;52.530;13.390;2022-08-19T04:08:56;11.75;;;9.55;;
19727;SDS011;10015;52.530;13.390;2022-08-19T04:11:25;12.50;;;9.40;;
19727;SDS011;10015;52.530;13.390;2022-08-19T04:13:54;9.98;;;8.75;;
19727;SDS011;10015;52.530;13.390;2022-08-19T04:16:21;12.18;;;9.25;;
19727;SDS011;10015;52.530;13.390;2022-08-19T04:18:49;12.68;;;9.25;;
19727;SDS011;10015;52.530;13.390;2022-08-19T04:21:19;14.63;;;10.35;;
19727;SDS011;10015;52.530;13.390;2022-08-19T04:23:47;11.88;;;9.23;;
19727;SDS011;10015;52.530;13.390;2022-08-19T04:26:14;11.55;;;9.38;;
19727;SDS011;10015;52.530;13.390;2022-08-19T04:28:41;12.48;;;9.45;;
19727;SDS011;10015;52.530;13.390;2022-08-19T04:31:12;12.52;;;9.63;;
19727;SDS011;10015;52.530;13.390;2022-08-19T04:33:40;12.27;;;10.02;;
19727;SDS011;10015;52.530;13.390;2022-08-19T04:36:06;12.45;;;9.52;;
19727;SDS011;10015;52.530;13.390;2022-08-19T04:38:33;12.52;;;9.93;;
19727;SDS011;10015;52.530;13.390;2022-08-19T04:40:59;11.93;;;9.32;;
19727;SDS011;10015;52.530;13.390;2022-08-19T04:43:44;14.30;;;10.20;;
19727;SDS011;10015;52.530;13.390;2022-08-19T04:46:13;12.90;;;9.90;;
19727;SDS011;10015;52.530;13.390;2022-08-19T04:48:40;12.52;;;10.52;;
19727;SDS011;10015;52.530;13.390;2022-08-19T04:51:07;11.45;;;9.68;;
19727;SDS011;10015;52.530;13.390;2022-08-19T04:53:37;11.15;;;9.48;;
19727;SDS011;10015;52.530;13.390;2022-08-19T04:56:05;13.25;;;9.02;;
19727;SDS011;10015;52.530;13.390;2022-08-19T04:58:36;10.43;;;9.30;;
19727;SDS011;10015;52.530;13.390;2022-08-19T05:01:03;12.68;;;9.50;;
19727;SDS011;10015;52.530;13.390;2022-08-19T05:03:29;10.55;;;8.82;;
19727;SDS011;10015;52.530;13.390;2022-08-19T05:06:03;13.55;;;8.85;;
19727;SDS011;10015;52.530;13.390;2022-08-19T05:08:35;12.63;;;9.30;;
19727;SDS011;10015;52.530;13.390;2022-08-19T05:11:07;13.40;;;9.50;;
19727;SDS011;10015;52.530;13.390;2022-08-19T05:13:36;10.73;;;8.80;;
19727;SDS011;10015;52.530;13.390;2022-08-19T05:16:02;13.02;;;9.43;;
19727;SDS011;10015;52.530;13.390;2022-08-19T05:18:29;11.23;;;8.95;;
19727;SDS011;10015;52.530;13.390;2022-08-19T05:21:14;11.20;;;9.18;;
19727;SDS011;10015;52.530;13.390;2022-08-19T05:24:02;10.30;;;9.18;;
19727;SDS011;10015;52.530;13.390;2022-08-19T05:26:29;11.00;;;9.48;;
19727;SDS011;10015;52.530;13.390;2022-08-19T05:28:58;12.68;;;8.77;;
19727;SDS011;10015;52.530;13.390;2022-08-19T05:31:23;13.50;;;10.15;;
19727;SDS011;10015;52.530;13.390;2022-08-19T05:33:49;13.52;;;9.65;;
19727;SDS011;10015;52.530;13.390;2022-08-19T05:36:16;13.85;;;10.63;;
19727;SDS011;10015;52.530;13.390;2022-08-19T05:38:44;13.95;;;9.23;;
19727;SDS011;10015;52.530;13.390;2022-08-19T05:41:11;13.23;;;9.48;;
19727;SDS011;10015;52.530;13.390;2022-08-19T05:43:38;12.68;;;9.70;;
19727;SDS011;10015;52.530;13.390;2022-08-19T05:46:04;11.45;;;9.50;;
19727;SDS011;10015;52.530;13.390;2022-08-19T05:48:32;12.40;;;10.02;;
19727;SDS011;10015;52.530;13.390;2022-08-19T05:51:02;11.27;;;9.35;;
19727;SDS011;10015;52.530;13.390;2022-08-19T05:53:32;12.52;;;11.10;;
19727;SDS011;10015;52.530;13.390;2022-08-19T05:56:09;12.82;;;9.40;;
19727;SDS011;10015;52.530;13.390;2022-08-19T05:58:41;14.98;;;9.90;;
19727;SDS011;10015;52.530;13.390;2022-08-19T06:01:17;13.20;;;10.18;;
19727;SDS011;10015;52.530;13.390;2022-08-19T06:03:43;13.80;;;10.18;;
19727;SDS011;10015;52.530;13.390;2022-08-19T06:06:12;15.50;;;10.52;;
19727;SDS011;10015;52.530;13.390;2022-08-19T06:08:39;11.90;;;9.70;;
19727;SDS011;10015;52.530;13.390;2022-08-19T06:14:07;14.05;;;10.73;;
19727;SDS011;10015;52.530;13.390;2022-08-19T06:16:35;13.13;;;9.90;;
19727;SDS011;10015;52.530;13.390;2022-08-19T06:19:04;13.20;;;10.07;;
19727;SDS011;10015;52.530;13.390;2022-08-19T06:21:33;13.55;;;10.52;;
19727;SDS011;10015;52.530;13.390;2022-08-19T06:24:03;14.65;;;10.32;;
19727;SDS011;10015;52.530;13.390;2022-08-19T06:26:30;14.00;;;10.27;;
19727;SDS011;10015;52.530;13.390;2022-08-19T06:28:58;14.40;;;10.73;;
19727;SDS011;10015;52.530;13.390;2022-08-19T06:31:25;15.13;;;11.68;;
19727;SDS011;10015;52.530;13.390;2022-08-19T06:33:52;13.45;;;10.02;;
19727;SDS011;10015;52.530;13.390;2022-08-19T06:36:22;14.60;;;11.15;;
19727;SDS011;10015;52.530;13.390;2022-08-19T06:39:03;13.77;;;11.00;;
19727;SDS011;10015;52.530;13.390;2022-08-19T06:41:39;14.88;;;11.02;;
19727;SDS011;10015;52.530;13.390;2022-08-19T06:44:14;15.23;;;12.15;;
19727;SDS011;10015;52.530;13.390;2022-08-19T06:46:41;12.02;;;10.50;;
19727;SDS011;10015;52.530;13.390;2022-08-19T06:49:07;14.50;;;11.10;;
19727;SDS011;10015;52.530;13.390;2022-08-19T06:51:38;13.60;;;11.48;;
19727;SDS011;10015;52.530;13.390;2022-08-19T06:54:06;14.82;;;11.32;;
19727;SDS011;10015;52.530;13.390;2022-08-19T06:56:32;15.52;;;11.90;;
19727;SDS011;10015;52.530;13.390;2022-08-19T06:59:05;15.38;;;11.05;;
19727;SDS011;10015;52.530;13.390;2022-08-19T07:01:38;16.83;;;12.57;;
19727;SDS011;10015;52.530;13.390;2022-08-19T07:04:06;13.38;;;11.55;;
19727;SDS011;10015;52.530;13.390;2022-08-19T07:06:34;15.52;;;12.65;;
19727;SDS011;10015;52.530;13.390;2022-08-19T07:09:02;15.80;;;12.45;;
19727;SDS011;10015;52.530;13.390;2022-08-19T07:11:29;14.75;;;12.25;;
19727;SDS011;10015;52.530;13.390;2022-08-19T07:13:56;17.88;;;13.00;;
19727;SDS011;10015;52.530;13.390;2022-08-19T07:16:22;16.27;;;11.82;;
19727;SDS011;10015;52.530;13.390;2022-08-19T07:18:49;16.65;;;12.25;;
19727;SDS011;10015;52.530;13.390;2022-08-19T07:21:19;14.27;;;11.52;;
19727;SDS011;10015;52.530;13.390;2022-08-19T07:23:47;15.73;;;12.73;;
19727;SDS011;10015;52.530;13.390;2022-08-19T07:26:15;16.60;;;11.77;;
19727;SDS011;10015;52.530;13.390;2022-08-19T07:28:45;18.27;;;12.80;;
19727;SDS011;10015;52.530;13.390;2022-08-19T07:31:13;17.00;;;12.93;;
19727;SDS011;10015;52.530;13.390;2022-08-19T07:33:42;16.67;;;12.18;;
19727;SDS011;10015;52.530;13.390;2022-08-19T07:36:08;16.17;;;13.27;;
19727;SDS011;10015;52.530;13.390;2022-08-19T07:38:39;14.98;;;12.48;;
19727;SDS011;10015;52.530;13.390;2022-08-19T07:41:10;15.73;;;13.23;;
19727;SDS011;10015;52.530;13.390;2022-08-19T07:43:38;16.13;;;12.57;;
19727;SDS011;10015;52.530;13.390;2022-08-19T07:46:05;15.38;;;12.20;;
19727;SDS011;10015;52.530;13.390;2022-08-19T07:48:31;17.25;;;13.18;;
19727;SDS011;10015;52.530;13.390;2022-08-19T07:51:00;16.65;;;13.20;;
19727;SDS011;10015;52.530;13.390;2022-08-19T07:53:29;16.27;;;12.82;;
19727;SDS011;10015;52.530;13.390;2022-08-19T07:55:57;18.52;;;13.73;;
19727;SDS011;10015;52.530;13.390;2022-08-19T07:58:30;17.13;;;14.27;;
19727;SDS011;10015;52.530;13.390;2022-08-19T08:00:58;16.95;;;13.48;;
19727;SDS011;10015;52.530;13.390;2022-08-19T08:03:24;16.92;;;13.80;;
19727;SDS011;10015;52.530;13.390;2022-08-19T08:06:11;17.10;;;13.57;;
19727;SDS011;10015;52.530;13.390;2022-08-19T08:09:19;18.63;;;13.55;;
19727;SDS011;10015;52.530;13.390;2022-08-19T08:12:01;16.45;;;13.60;;
19727;SDS011;10015;52.530;13.390;2022-08-19T08:14:32;16.75;;;13.68;;
19727;SDS011;10015;52.530;13.390;2022-08-19T08:17:02;28.92;;;20.70;;
19727;SDS011;10015;52.530;13.390;2022-08-19T08:19:29;21.88;;;17.20;;
19727;SDS011;10015;52.530;13.390;2022-08-19T08:21:56;21.17;;;15.20;;
19727;SDS011;10015;52.530;13.390;2022-08-19T08:24:24;21.85;;;16.70;;
19727;SDS011;10015;52.530;13.390;2022-08-19T08:26:51;22.67;;;17.08;;
19727;SDS011;10015;52.530;13.390;2022-08-19T08:29:18;20.95;;;16.27;;
19727;SDS011;10015;52.530;13.390;2022-08-19T08:31:45;17.75;;;15.02;;
19727;SDS011;10015;52.530;13.390;2022-08-19T08:34:12;18.73;;;15.02;;
19727;SDS011;10015;52.530;13.390;2022-08-19T08:36:40;17.75;;;14.93;;
19727;SDS011;10015;52.530;13.390;2022-08-19T08:39:14;21.25;;;16.92;;
19727;SDS011;10015;52.530;13.390;2022-08-19T08:44:38;23.00;;;16.58;;
19727;SDS011;10015;52.530;13.390;2022-08-19T08:47:30;18.88;;;15.55;;
19727;SDS011;10015;52.530;13.390;2022-08-19T08:50:16;18.40;;;14.73;;
19727;SDS011;10015;52.530;13.390;2022-08-19T08:52:47;19.55;;;14.65;;
19727;SDS011;10015;52.530;13.390;2022-08-19T08:55:19;20.48;;;15.77;;
19727;SDS011;10015;52.530;13.390;2022-08-19T09:00:20;35.00;;;25.02;;
19727;SDS011;10015;52.530;13.390;2022-08-19T09:02:58;32.70;;;19.85;;
19727;SDS011;10015;52.530;13.390;2022-08-19T09:05:59;15.68;;;12.90;;
19727;SDS011;10015;52.530;13.390;2022-08-19T09:11:19;18.67;;;13.63;;
19727;SDS011;10015;52.530;13.390;2022-08-19T09:16:44;15.05;;;12.70;;
19727;SDS011;10015;52.530;13.390;2022-08-19T09:19:10;15.30;;;12.52;;
19727;SDS011;10015;52.530;13.390;2022-08-19T09:21:37;15.07;;;12.50;;
19727;SDS011;10015;52.530;13.390;2022-08-19T09:24:04;13.90;;;12.35;;
19727;SDS011;10015;52.530;13.390;2022-08-19T09:26:31;23.60;;;13.57;;
19727;SDS011;10015;52.530;13.390;2022-08-19T09:28:58;16.52;;;11.80;;
19727;SDS011;10015;52.530;13.390;2022-08-19T09:31:25;14.88;;;12.48;;
19727;SDS011;10015;52.530;13.390;2022-08-19T09:33:53;17.05;;;13.02;;
19727;SDS011;10015;52.530;13.390;2022-08-19T09:36:23;13.90;;;11.80;;
19727;SDS011;10015;52.530;13.390;2022-08-19T09:38:51;19.08;;;13.02;;
19727;SDS011;10015;52.530;13.390;2022-08-19T09:41:20;15.48;;;12.48;;
19727;SDS011;10015;52.530;13.390;2022-08-19T09:43:53;14.57;;;12.48;;
19727;SDS011;10015;52.530;13.390;2022-08-19T09:46:24;13.07;;;11.43;;
19727;SDS011;10015;52.530;13.390;2022-08-19T09:48:52;16.48;;;12.30;;
19727;SDS011;10015;52.530;13.390;2022-08-19T09:51:21;16.48;;;12.48;;
19727;SDS011;10015;52.530;13.390;2022-08-19T09:53:50;14.57;;;11.63;;
19727;SDS011;10015;52.530;13.390;2022-08-19T09:56:19;26.92;;;14.43;;
19727;SDS011;10015;52.530;13.390;2022-08-19T09:58:47;24.45;;;13.95;;
19727;SDS011;10015;52.530;13.390;2022-08-19T10:01:18;25.80;;;17.25;;
19727;SDS011;10015;52.530;13.390;2022-08-19T10:03:47;17.02;;;12.50;;
19727;SDS011;10015;52.530;13.390;2022-08-19T10:06:16;16.70;;;12.30;;
19727;SDS011;10015;52.530;13.390;2022-08-19T10:08:43;21.33;;;13.20;;
19727;SDS011;10015;52.530;13.390;2022-08-19T10:11:10;15.68;;;12.48;;
19727;SDS011;10015;52.530;13.390;2022-08-19T10:13:36;14.18;;;11.60;;
19727;SDS011;10015;52.530;13.390;2022-08-19T10:16:05;18.95;;;12.20;;
19727;SDS011;10015;52.530;13.390;2022-08-19T10:18:34;20.45;;;13.73;;
19727;SDS011;10015;52.530;13.390;2022-08-19T10:21:06;15.43;;;12.55;;
19727;SDS011;10015;52.530;13.390;2022-08-19T10:23:35;17.33;;;12.30;;
19727;SDS011;10015;52.530;13.390;2022-08-19T10:26:04;14.30;;;12.15;;
19727;SDS011;10015;52.530;13.390;2022-08-19T10:28:35;14.95;;;12.10;;
19727;SDS011;10015;52.530;13.390;2022-08-19T10:31:12;16.45;;;12.07;;
19727;SDS011;10015;52.530;13.390;2022-08-19T10:33:43;14.52;;;12.18;;
19727;SDS011;10015;52.530;13.390;2022-08-19T10:36:13;13.23;;;11.77;;
19727;SDS011;10015;52.530;13.390;2022-08-19T10:38:43;14.50;;;12.07;;
19727;SDS011;10015;52.530;13.390;2022-08-19T10:41:12;13.90;;;11.77;;
19727;SDS011;10015;52.530;13.390;2022-08-19T10:43:41;16.35;;;11.75;;
19727;SDS011;10015;52.530;13.390;2022-08-19T10:46:15;18.10;;;12.35;;
19727;SDS011;10015;52.530;13.390;2022-08-19T10:48:41;18.27;;;12.32;;
19727;SDS011;10015;52.530;13.390;2022-08-19T10:51:08;13.05;;;11.07;;
19727;SDS011;10015;52.530;13.390;2022-08-19T10:53:54;12.45;;;10.30;;
19727;SDS011;10015;52.530;13.390;2022-08-19T10:56:21;14.88;;;11.77;;
19727;SDS011;10015;52.530;13.390;2022-08-19T10:59:06;17.08;;;12.15;;
19727;SDS011;10015;52.530;13.390;2022-08-19T11:01:33;16.83;;;13.93;;
19727;SDS011;10015;52.530;13.390;2022-08-19T11:04:00;15.93;;;11.65;;
19727;SDS011;10015;52.530;13.390;2022-08-19T11:06:27;17.50;;;11.07;;
19727;SDS011;10015;52.530;13.390;2022-08-19T11:08:53;13.57;;;11.70;;
19727;SDS011;10015;52.530;13.390;2022-08-19T11:11:20;16.95;;;11.43;;
19727;SDS011;10015;52.530;13.390;2022-08-19T11:13:47;14.68;;;11.57;;
19727;SDS011;10015;52.530;13.390;2022-08-19T11:16:16;15.02;;;11.07;;
19727;SDS011;10015;52.530;13.390;2022-08-19T11:18:45;23.08;;;14.75;;
19727;SDS011;10015;52.530;13.390;2022-08-19T11:21:14;16.95;;;12.23;;
19727;SDS011;10015;52.530;13.390;2022-08-19T11:23:47;17.20;;;11.95;;
19727;SDS011;10015;52.530;13.390;2022-08-19T11:26:14;16.10;;;11.60;;
19727;SDS011;10015;52.530;13.390;2022-08-19T11:28:42;15.55;;;12.20;;
19727;SDS011;10015;52.530;13.390;2022-08-19T11:31:16;14.73;;;12.40;;
19727;SDS011;10015;52.530;13.390;2022-08-19T11:33:43;15.55;;;11.27;;
19727;SDS011;10015;52.530;13.390;2022-08-19T11:36:10;16.45;;;11.73;;
19727;SDS011;10015;52.530;13.390;2022-08-19T11:38:36;14.10;;;11.27;;
19727;SDS011;10015;52.530;13.390;2022-08-19T11:41:04;13.68;;;11.45;;
19727;SDS011;10015;52.530;13.390;2022-08-19T11:43:35;16.67;;;11.27;;
19727;SDS011;10015;52.530;13.390;2022-08-19T11:46:05;14.07;;;11.38;;
19727;SDS011;10015;52.530;13.390;2022-08-19T11:48:32;12.95;;;10.50;;
19727;SDS011;10015;52.530;13.390;2022-08-19T11:50:58;14.00;;;10.45;;
19727;SDS011;10015;52.530;13.390;2022-08-19T11:53:24;11.70;;;10.30;;
19727;SDS011;10015;52.530;13.390;2022-08-19T11:55:50;13.10;;;10.98;;
19727;SDS011;10015;52.530;13.390;2022-08-19T11:58:22;10.73;;;9.57;;
19727;SDS011;10015;52.530;13.390;2022-08-19T12:00:48;12.57;;;10.20;;
19727;SDS011;10015;52.530;13.390;2022-08-19T12:03:14;13.73;;;10.63;;
19727;SDS011;10015;52.530;13.390;2022-08-19T12:05:40;13.55;;;10.27;;
19727;SDS011;10015;52.530;13.390;2022-08-19T12:08:07;12.68;;;10.25;;
19727;SDS011;10015;52.530;13.390;2022-08-19T12:10:34;14.25;;;10.27;;
19727;SDS011;10015;52.530;13.390;2022-08-19T12:13:00;11.65;;;9.70;;
19727;SDS011;10015;52.530;13.390;2022-08-19T12:15:27;13.27;;;9.68;;
19727;SDS011;10015;52.530;13.390;2022-08-19T12:17:54;13.75;;;9.95;;
19727;SDS011;10015;52.530;13.390;2022-08-19T12:20:23;13.38;;;9.32;;
19727;SDS011;10015;52.530;13.390;2022-08-19T12:22:50;11.25;;;9.32;;
19727;SDS011;10015;52.530;13.390;2022-08-19T12:25:16;13.02;;;10.23;;
19727;SDS011;10015;52.530;13.390;2022-08-19T12:27:42;15.50;;;9.18;;
19727;SDS011;10015;52.530;13.390;2022-08-19T12:30:09;12.90;;;9.68;;
19727;SDS011;10015;52.530;13.390;2022-08-19T12:32:37;11.20;;;9.38;;
19727;SDS011;10015;52.530;13.390;2022-08-19T12:35:04;9.85;;;8.82;;
19727;SDS011;10015;52.530;13.390;2022-08-19T12:37:31;12.25;;;8.73;;
19727;SDS011;10015;52.530;13.390;2022-08-19T12:39:59;10.35;;;8.80;;
19727;SDS011;10015;52.530;13.390;2022-08-19T12:42:25;11.45;;;8.52;;
19727;SDS011;10015;52.530;13.390;2022-08-19T12:44:51;11.27;;;9.27;;
19727;SDS011;10015;52.530;13.390;2022-08-19T12:47:18;9.45;;;8.27;;
19727;SDS011;10015;52.530;13.390;2022-08-19T12:49:44;10.85;;;8.80;;
19727;SDS011;10015;52.530;13.390;2022-08-19T12:52:12;10.35;;;8.48;;
19727;SDS011;10015;52.530;13.390;2022-08-19T12:54:41;9.77;;;8.27;;
19727;SDS011;10015;52.530;13.390;2022-08-19T12:57:11;11.20;;;8.98;;
19727;SDS011;10015;52.530;13.390;2022-08-19T12:59:38;12.80;;;9.30;;
19727;SDS011;10015;52.530;13.390;2022-08-19T13:02:05;12.45;;;9.10;;
19727;SDS011;10015;52.530;13.390;2022-08-19T13:04:33;10.80;;;9.43;;
19727;SDS011;10015;52.530;13.390;2022-08-19T13:07:06;10.25;;;9.05;;
19727;SDS011;10015;52.530;13.390;2022-08-19T13:09:34;12.07;;;9.85;;
19727;SDS011;10015;52.530;13.390;2022-08-19T13:12:01;12.30;;;10.32;;
19727;SDS011;10015;52.530;13.390;2022-08-19T13:14:29;13.48;;;9.77;;
19727;SDS011;10015;52.530;13.390;2022-08-19T13:16:59;15.80;;;10.55;;
19727;SDS011;10015;52.530;13.390;2022-08-19T13:19:26;13.95;;;10.55;;
19727;SDS011;10015;52.530;13.390;2022-08-19T13:21:52;12.70;;;10.25;;
19727;SDS011;10015;52.530;13.390;2022-08-19T13:24:21;14.10;;;10.15;;
19727;SDS011;10015;52.530;13.390;2022-08-19T13:26:47;11.50;;;9.63;;
19727;SDS011;10015;52.530;13.390;2022-08-19T13:29:13;14.23;;;10.32;;
19727;SDS011;10015;52.530;13.390;2022-08-19T13:31:58;12.48;;;10.55;;
19727;SDS011;10015;52.530;13.390;2022-08-19T13:34:43;10.68;;;9.57;;
19727;SDS011;10015;52.530;13.390;2022-08-19T13:37:12;15.82;;;11.00;;
19727;SDS011;10015;52.530;13.390;2022-08-19T13:39:38;13.82;;;10.27;;
19727;SDS011;10015;52.530;13.390;2022-08-19T13:42:06;13.50;;;10.75;;
19727;SDS011;10015;52.530;13.390;2022-08-19T13:44:33;12.52;;;10.20;;
19727;SDS011;10015;52.530;13.390;2022-08-19T13:47:00;14.65;;;10.73;;
19727;SDS011;10015;52.530;13.390;2022-08-19T13:49:33;12.05;;;10.27;;
19727;SDS011;10015;52.530;13.390;2022-08-19T13:52:02;10.50;;;9.40;;
19727;SDS011;10015;52.530;13.390;2022-08-19T13:54:29;14.38;;;10.10;;
19727;SDS011;10015;52.530;13.390;2022-08-19T13:56:55;12.18;;;10.05;;
19727;SDS011;10015;52.530;13.390;2022-08-19T13:59:22;15.32;;;10.43;;
19727;SDS011;10015;52.530;13.390;2022-08-19T14:01:48;12.32;;;10.43;;
19727;SDS011;10015;52.530;13.390;2022-08-19T14:04:15;12.73;;;10.32;;
19727;SDS011;10015;52.530;13.390;2022-08-19T14:06:42;13.25;;;10.55;;
19727;SDS011;10015;52.530;13.390;2022-08-19T14:09:09;15.40;;;10.95;;
19727;SDS011;10015;52.530;13.390;2022-08-19T14:11:35;11.90;;;10.60;;
19727;SDS011;10015;52.530;13.390;2022-08-19T14:14:01;12.95;;;9.77;;
19727;SDS011;10015;52.530;13.390;2022-08-19T14:16:27;20.10;;;10.43;;
19727;SDS011;10015;52.530;13.390;2022-08-19T14:18:58;13.55;;;10.70;;
19727;SDS011;10015;52.530;13.390;2022-08-19T14:21:25;14.23;;;10.75;;
19727;SDS011;10015;52.530;13.390;2022-08-19T14:23:51;13.88;;;10.52;;
19727;SDS011;10015;52.530;13.390;2022-08-19T14:26:18;12.13;;;10.63;;
19727;SDS011;10015;52.530;13.390;2022-08-19T14:28:46;12.82;;;10.27;;
19727;SDS011;10015;52.530;13.390;2022-08-19T14:31:13;16.05;;;10.30;;
19727;SDS011;10015;52.530;13.390;2022-08-19T14:33:43;11.68;;;10.18;;
19727;SDS011;10015;52.530;13.390;2022-08-19T14:36:10;13.43;;;10.68;;
19727;SDS011;10015;52.530;13.390;2022-08-19T14:38:37;12.05;;;10.75;;
19727;SDS011;10015;52.530;13.390;2022-08-19T14:41:16;12.68;;;9.52;;
19727;SDS011;10015;52.530;13.390;2022-08-19T14:43:46;13.35;;;10.15;;
19727;SDS011;10015;52.530;13.390;2022-08-19T14:46:16;12.43;;;9.98;;
19727;SDS011;10015;52.530;13.390;2022-08-19T14:48:46;13.82;;;10.32;;
19727;SDS011;10015;52.530;13.390;2022-08-19T14:51:12;12.85;;;9.82;;
19727;SDS011;10015;52.530;13.390;2022-08-19T14:53:39;14.80;;;9.85;;
19727;SDS011;10015;52.530;13.390;2022-08-19T14:56:07;12.10;;;9.50;;
19727;SDS011;10015;52.530;13.390;2022-08-19T14:58:41;13.60;;;10.27;;